Time;durP1;ratioP1;P1;durP2;ratioP2;P2;SDS_P1;SDS_P2;PMS_P1;PMS_P2;Temp;Humidity;BMP_temperature;BMP_pressure;BME280_temperature;BME280_humidity;BME280_pressure;Samples;Min_cycle;Max_cycle;Signal;HPM_P1;HPM_P2
2022/03/17 00:00:52;;;;;;;45.10;22.80;;;;;;;6.35;87.36;102686.72;4990001;28;20192;-74
2022/03/17 00:03:17;;;;;;;42.33;22.40;;;;;;;6.33;87.54;102693.41;4990444;28;20188;-73
2022/03/17 00:05:43;;;;;;;38.70;22.97;;;;;;;6.31;87.33;102697.47;4972795;28;20216;-72
2022/03/17 00:08:09;;;;;;;44.77;24.23;;;;;;;6.31;87.54;102694.06;4971645;28;20299;-72
2022/03/17 00:10:34;;;;;;;43.57;24.27;;;;;;;6.29;88.04;102691.44;4971120;28;20684;-73
2022/03/17 00:12:59;;;;;;;46.37;26.23;;;;;;;6.31;88.25;102691.53;4960779;28;20247;-72
2022/03/17 00:15:24;;;;;;;48.50;26.13;;;;;;;6.32;87.56;102690.75;4970407;28;20211;-72
2022/03/17 00:17:50;;;;;;;45.37;26.13;;;;;;;6.29;87.83;102678.72;4970130;28;20284;-73
2022/03/17 00:20:15;;;;;;;48.70;26.53;;;;;;;6.31;87.95;102681.34;4970080;28;20212;-72
2022/03/17 00:22:41;;;;;;;53.33;27.13;;;;;;;6.24;88.37;102690.25;4953848;28;20193;-72
2022/03/17 00:25:07;;;;;;;56.90;27.87;;;;;;;6.21;88.66;102694.25;4977566;28;20207;-72
2022/03/17 00:27:34;;;;;;;47.40;26.97;;;;;;;6.23;89.13;102683.41;4989226;28;20645;-72
2022/03/17 00:30:00;;;;;;;51.83;27.43;;;;;;;6.19;88.67;102680.53;4989314;28;20195;-73
2022/03/17 00:32:26;;;;;;;52.83;28.83;;;;;;;6.16;89.05;102685.41;4990420;28;20681;-72
2022/03/17 00:37:35;;;;;;;57.67;30.47;;;;;;;6.13;89.24;102678.47;4979362;28;20199;-72
2022/03/17 00:40:01;;;;;;;52.73;29.73;;;;;;;6.14;89.19;102670.09;4982346;28;20199;-72
2022/03/17 00:42:27;;;;;;;57.20;31.27;;;;;;;6.10;89.21;102668.09;4990193;28;20187;-72
2022/03/17 00:44:54;;;;;;;59.93;29.93;;;;;;;6.07;89.20;102670.44;4990239;28;20218;-72
2022/03/17 00:47:20;;;;;;;54.50;29.83;;;;;;;6.08;89.87;102674.72;4989359;28;20219;-73
2022/03/17 00:49:47;;;;;;;60.27;32.93;;;;;;;6.05;89.97;102683.81;4990131;28;20188;-72
2022/03/17 00:52:12;;;;;;;57.97;32.20;;;;;;;6.02;90.18;102674.34;4990337;28;20190;-72
2022/03/17 00:54:42;;;;;;;60.47;33.07;;;;;;;6.04;89.72;102669.34;4985665;28;20204;-72
2022/03/17 00:57:08;;;;;;;55.00;30.77;;;;;;;6.01;90.43;102662.41;4970799;28;20192;-72
2022/03/17 00:59:35;;;;;;;64.33;33.17;;;;;;;5.98;90.53;102649.47;4969600;28;20188;-72
2022/03/17 01:02:01;;;;;;;60.40;32.80;;;;;;;5.97;89.87;102655.34;4970784;28;20192;-72
2022/03/17 01:04:27;;;;;;;60.57;33.10;;;;;;;5.97;90.06;102659.53;4990422;28;20257;-72
2022/03/17 01:06:52;;;;;;;61.50;32.90;;;;;;;5.97;90.74;102657.91;4979472;28;20216;-72
2022/03/17 01:09:17;;;;;;;61.07;32.43;;;;;;;5.95;90.64;102658.56;4970690;28;20238;-72
2022/03/17 01:11:43;;;;;;;63.57;34.83;;;;;;;5.96;91.07;102663.78;4970383;28;20211;-72
2022/03/17 01:14:08;;;;;;;63.83;33.23;;;;;;;5.98;90.63;102656.25;4970475;28;20250;-71
2022/03/17 01:16:34;;;;;;;64.20;33.60;;;;;;;5.98;90.56;102658.78;4970544;28;20176;-72
2022/03/17 01:18:59;;;;;;;59.57;34.13;;;;;;;5.97;90.64;102647.72;4969171;28;21011;-72
2022/03/17 01:21:24;;;;;;;64.73;34.60;;;;;;;5.97;91.18;102651.91;4970457;28;20199;-72
2022/03/17 01:23:50;;;;;;;62.57;34.30;;;;;;;5.98;90.94;102646.09;4970145;28;20937;-72
2022/03/17 01:26:16;;;;;;;62.90;34.13;;;;;;;5.97;91.39;102640.09;4970328;28;20210;-72
2022/03/17 01:28:41;;;;;;;62.83;34.47;;;;;;;5.95;90.75;102644.19;4968931;28;20565;-72
2022/03/17 01:31:08;;;;;;;61.77;35.77;;;;;;;5.96;90.58;102651.06;4969220;28;20726;-72
2022/03/17 01:33:34;;;;;;;66.40;35.10;;;;;;;5.92;91.53;102641.47;4970255;28;20188;-72
2022/03/17 01:35:59;;;;;;;67.87;36.20;;;;;;;5.93;91.41;102630.50;4985282;28;20199;-72
2022/03/17 01:38:25;;;;;;;65.63;35.93;;;;;;;5.93;90.78;102633.03;4970439;28;20275;-72
2022/03/17 01:40:50;;;;;;;59.80;34.57;;;;;;;5.97;91.30;102629.03;4970570;28;20208;-72
2022/03/17 01:43:15;;;;;;;65.93;36.50;;;;;;;5.95;90.95;102631.47;4970157;28;20231;-72
2022/03/17 01:45:41;;;;;;;65.57;36.40;;;;;;;5.94;91.22;102633.94;4968961;28;20258;-72
2022/03/17 01:48:06;;;;;;;61.33;34.63;;;;;;;5.97;91.25;102634.13;4968553;28;20291;-72
2022/03/17 01:50:31;;;;;;;65.27;36.23;;;;;;;5.93;91.13;102620.34;4968376;28;20189;-72
2022/03/17 01:52:57;;;;;;;69.17;37.20;;;;;;;5.93;91.13;102622.88;4969869;28;20184;-72
2022/03/17 01:55:22;;;;;;;61.93;35.30;;;;;;;5.92;90.68;102626.22;4969799;28;20255;-73
2022/03/17 01:57:48;;;;;;;61.13;35.27;;;;;;;5.93;91.54;102621.97;4970058;28;20239;-72
2022/03/17 02:00:17;;;;;;;65.40;37.20;;;;;;;5.91;90.96;102624.47;4968660;28;20292;-72
2022/03/17 02:02:44;;;;;;;66.17;37.20;;;;;;;5.92;90.88;102635.47;4969869;28;20247;-72
2022/03/17 02:05:10;;;;;;;65.63;36.53;;;;;;;5.89;91.78;102626.00;4971267;28;20311;-72
2022/03/17 02:07:35;;;;;;;67.13;36.90;;;;;;;5.92;91.46;102615.16;4986454;28;20388;-72
2022/03/17 02:10:01;;;;;;;69.00;37.10;;;;;;;5.90;91.03;102615.03;4989184;28;20191;-72
2022/03/17 02:15:11;;;;;;;61.13;36.27;;;;;;;5.91;91.11;102623.56;4979444;28;20211;-72
2022/03/17 02:17:41;;;;;;;63.93;37.13;;;;;;;5.89;91.03;102602.25;4984828;28;20197;-72
2022/03/17 02:20:10;;;;;;;65.20;39.03;;;;;;;5.90;91.14;102602.34;4970023;28;20203;-72
2022/03/17 02:22:42;;;;;;;67.73;37.60;;;;;;;5.86;91.16;102597.84;4969681;28;20717;-72
2022/03/17 02:27:51;;;;;;;63.23;36.43;;;;;;;5.91;91.35;102588.88;4968562;28;20216;-72
2022/03/17 02:30:19;;;;;;;67.67;38.23;;;;;;;5.89;90.92;102576.84;4952253;28;20195;-72
2022/03/17 02:32:45;;;;;;;63.67;37.70;;;;;;;5.89;90.69;102570.06;4969519;28;20192;-72
2022/03/17 02:35:13;;;;;;;69.70;39.23;;;;;;;5.91;90.56;102573.63;4972993;28;20223;-72
2022/03/17 02:37:39;;;;;;;66.67;39.57;;;;;;;5.93;90.41;102576.22;4976342;28;20205;-72
2022/03/17 02:40:07;;;;;;;66.87;36.80;;;;;;;5.89;90.81;102572.63;4969588;28;20261;-72
2022/03/17 02:42:33;;;;;;;66.43;37.83;;;;;;;5.89;90.55;102575.16;4969505;28;20188;-72
2022/03/17 02:45:00;;;;;;;63.87;38.27;;;;;;;5.88;90.67;102572.50;4969428;28;20630;-72
2022/03/17 02:47:27;;;;;;;65.53;38.83;;;;;;;5.88;91.13;102568.31;4969467;28;20960;-72
2022/03/17 02:49:56;;;;;;;64.73;38.70;;;;;;;5.87;90.73;102566.56;4968049;28;20207;-72
2022/03/17 02:52:22;;;;;;;68.23;39.13;;;;;;;5.92;90.72;102565.19;4969332;28;20192;-72
2022/03/17 02:54:48;;;;;;;64.57;37.47;;;;;;;5.90;90.52;102560.81;4976351;28;20219;-72
2022/03/17 02:57:13;;;;;;;67.00;38.80;;;;;;;5.88;89.80;102558.16;4977142;28;20681;-72
2022/03/17 02:59:39;;;;;;;63.00;38.57;;;;;;;5.90;90.65;102551.50;4990230;28;20262;-72
2022/03/17 03:02:04;;;;;;;65.50;39.73;;;;;;;5.86;90.44;102547.03;4990867;28;20683;-72
2022/03/17 03:04:33;;;;;;;69.47;38.93;;;;;;;5.88;90.35;102540.34;4992200;28;20211;-72
2022/03/17 03:06:59;;;;;;;64.67;38.87;;;;;;;5.88;90.65;102542.91;4981915;28;20200;-72
2022/03/17 03:09:24;;;;;;;66.40;39.73;;;;;;;5.87;90.43;102535.16;4974176;28;20243;-72
2022/03/17 03:11:49;;;;;;;65.53;38.47;;;;;;;5.86;90.10;102538.50;4964229;28;20243;-72
2022/03/17 03:14:15;;;;;;;66.23;39.17;;;;;;;5.85;90.45;102544.38;4972174;28;20216;-72
2022/03/17 03:16:41;;;;;;;66.40;39.97;;;;;;;5.84;90.46;102543.47;4972697;28;20188;-72
2022/03/17 03:19:06;;;;;;;64.20;39.83;;;;;;;5.85;90.43;102546.91;4972703;28;20542;-72
2022/03/17 03:21:31;;;;;;;66.17;39.70;;;;;;;5.88;90.04;102547.09;4972579;28;20188;-72
2022/03/17 03:23:57;;;;;;;69.90;40.23;;;;;;;5.82;90.10;102544.16;4972439;28;20286;-72
2022/03/17 03:26:23;;;;;;;63.63;38.33;;;;;;;5.87;89.96;102542.78;4972645;28;20223;-72
2022/03/17 03:28:48;;;;;;;69.07;40.57;;;;;;;5.86;90.41;102534.31;4972371;28;20177;-72
2022/03/17 03:31:13;;;;;;;66.20;39.83;;;;;;;5.85;90.45;102534.22;4972541;28;20200;-72
2022/03/17 03:33:39;;;;;;;62.40;39.27;;;;;;;5.83;90.35;102534.09;4970676;28;20199;-72
2022/03/17 03:38:50;;;;;;;66.07;39.83;;;;;;;5.83;90.65;102528.13;4972144;28;20196;-72
2022/03/17 03:41:16;;;;;;;68.23;39.60;;;;;;;5.81;90.47;102527.16;4972090;28;20203;-72
2022/03/17 03:43:41;;;;;;;68.60;40.33;;;;;;;5.85;89.99;102524.91;4971739;28;20212;-72
2022/03/17 03:46:06;;;;;;;64.37;38.73;;;;;;;5.87;90.03;102515.72;4954786;28;20200;-72
2022/03/17 03:48:32;;;;;;;67.07;39.93;;;;;;;5.86;90.23;102515.63;4970781;28;20213;-72
2022/03/17 03:50:57;;;;;;;66.47;40.30;;;;;;;5.88;90.38;102516.59;4971679;28;20296;-72
2022/03/17 03:54:12;;;;;;;66.73;40.70;;;;;;;5.84;91.09;102512.97;4971722;28;20274;-72
2022/03/17 03:56:08;;;;;;;70.10;41.60;;;;;;;5.89;90.11;102508.22;4982867;28;20196;-72
2022/03/17 03:58:33;;;;;;;69.40;41.23;;;;;;;5.87;90.37;102515.72;4970343;28;20203;-72
2022/03/17 04:00:58;;;;;;;70.00;40.63;;;;;;;5.89;89.96;102510.75;4971809;28;20193;-72
2022/03/17 04:03:24;;;;;;;63.83;38.90;;;;;;;5.88;89.73;102502.22;4971489;28;20239;-72
2022/03/17 04:05:51;;;;;;;66.57;40.47;;;;;;;5.89;89.72;102509.06;4971181;28;20216;-72
2022/03/17 04:08:17;;;;;;;70.07;40.87;;;;;;;5.90;89.94;102505.75;4979473;28;20258;-72
2022/03/17 04:10:42;;;;;;;66.23;40.97;;;;;;;5.90;89.71;102503.19;4970285;28;20737;-72
2022/03/17 04:13:07;;;;;;;64.33;40.77;;;;;;;5.94;89.92;102512.78;4958884;28;20282;-72
2022/03/17 04:15:33;;;;;;;65.30;41.40;;;;;;;5.94;89.39;102502.63;4971463;28;20250;-72
2022/03/17 04:17:58;;;;;;;67.33;40.77;;;;;;;5.94;89.50;102497.53;4986514;28;20239;-72
2022/03/17 04:20:23;;;;;;;62.43;39.10;;;;;;;5.95;89.50;102498.44;4971187;28;20196;-72
2022/03/17 04:22:49;;;;;;;68.03;41.33;;;;;;;5.99;88.96;102496.16;4971356;28;20185;-72
2022/03/17 04:25:14;;;;;;;68.20;39.37;;;;;;;5.98;89.46;102496.09;4969997;28;20212;-72
2022/03/17 04:27:40;;;;;;;67.13;41.23;;;;;;;6.00;89.21;102508.13;4971247;28;20192;-72
2022/03/17 04:30:06;;;;;;;67.53;41.37;;;;;;;5.99;89.51;102513.09;4971282;28;20227;-72
2022/03/17 04:32:31;;;;;;;65.40;39.67;;;;;;;6.01;89.21;102509.88;4971135;28;20760;-72
2022/03/17 04:34:57;;;;;;;63.87;39.70;;;;;;;6.00;89.51;102514.84;4969837;28;20204;-72
2022/03/17 04:37:22;;;;;;;69.53;40.70;;;;;;;6.01;89.03;102516.59;4971781;28;20192;-73
2022/03/17 04:39:47;;;;;;;63.70;40.10;;;;;;;6.00;88.79;102500.50;4978703;28;20196;-73
2022/03/17 04:42:13;;;;;;;62.10;39.00;;;;;;;6.03;88.85;102498.13;4970386;28;20638;-73
2022/03/17 04:44:38;;;;;;;66.63;41.03;;;;;;;6.04;88.74;102486.31;4972356;28;20219;-73
2022/03/17 04:47:03;;;;;;;64.53;42.77;;;;;;;6.05;89.02;102485.50;4977942;28;20610;-73
2022/03/17 04:49:29;;;;;;;66.67;41.57;;;;;;;6.07;88.61;102473.78;4976467;28;20200;-72
2022/03/17 04:51:54;;;;;;;63.97;40.37;;;;;;;6.09;88.51;102480.75;4970093;28;20196;-72
2022/03/17 04:54:20;;;;;;;68.00;42.20;;;;;;;6.08;88.48;102473.88;4975744;28;20286;-73
2022/03/17 04:56:45;;;;;;;65.70;42.27;;;;;;;6.09;88.44;102480.75;4977847;28;20192;-73
2022/03/17 04:59:11;;;;;;;65.37;42.00;;;;;;;6.10;88.32;102472.31;4986265;28;20200;-73
2022/03/17 05:01:36;;;;;;;66.70;41.07;;;;;;;6.10;88.57;102476.50;4971402;28;20187;-73
2022/03/17 05:04:02;;;;;;;65.37;41.43;;;;;;;6.11;88.76;102479.16;4971013;28;20216;-73
2022/03/17 05:06:27;;;;;;;65.97;41.17;;;;;;;6.13;88.35;102471.63;4986567;28;20206;-72
2022/03/17 05:08:53;;;;;;;64.53;41.07;;;;;;;6.13;88.46;102464.88;4990738;28;20542;-73
2022/03/17 05:11:19;;;;;;;65.83;41.50;;;;;;;6.13;88.40;102469.09;4990638;28;20200;-72
2022/03/17 05:13:44;;;;;;;63.97;40.70;;;;;;;6.16;88.18;102465.06;4989045;28;20211;-73
2022/03/17 05:16:10;;;;;;;66.33;41.47;;;;;;;6.17;88.06;102466.81;4989121;28;20187;-72
2022/03/17 05:18:36;;;;;;;65.07;41.33;;;;;;;6.20;87.70;102463.59;4990424;28;20707;-73
2022/03/17 05:21:02;;;;;;;62.57;40.53;;;;;;;6.20;87.43;102467.03;4990341;28;20191;-72
2022/03/17 05:23:30;;;;;;;63.30;40.20;;;;;;;6.24;87.61;102468.97;4989606;28;20187;-73
2022/03/17 05:25:55;;;;;;;61.63;41.10;;;;;;;6.25;87.37;102478.38;4990130;28;20310;-72
2022/03/17 05:28:20;;;;;;;63.90;41.67;;;;;;;6.27;87.26;102483.56;4990515;28;20701;-73
2022/03/17 05:30:46;;;;;;;66.67;41.20;;;;;;;6.30;87.27;102481.19;4990648;28;20203;-72
2022/03/17 05:33:12;;;;;;;63.27;41.00;;;;;;;6.31;86.64;102486.38;4990291;28;20721;-72
2022/03/17 05:35:39;;;;;;;60.70;41.07;;;;;;;6.36;86.68;102479.91;4988940;28;20239;-73
2022/03/17 05:38:05;;;;;;;60.97;39.80;;;;;;;6.37;86.64;102480.78;4990351;28;20241;-73
2022/03/17 05:40:30;;;;;;;62.63;41.27;;;;;;;6.40;86.75;102484.41;4990162;28;20188;-73
2022/03/17 05:42:58;;;;;;;59.47;40.13;;;;;;;6.42;86.26;102487.03;4990160;28;20183;-73
2022/03/17 05:45:26;;;;;;;66.07;41.17;;;;;;;6.46;86.09;102483.91;4990025;28;20207;-73
2022/03/17 05:47:53;;;;;;;65.37;41.57;;;;;;;6.46;86.44;102477.16;4990363;28;20238;-73
2022/03/17 05:50:21;;;;;;;61.90;42.07;;;;;;;6.48;85.80;102477.22;4989545;28;20646;-73
2022/03/17 05:52:47;;;;;;;66.63;42.83;;;;;;;6.52;85.83;102477.53;4976068;28;20192;-73
2022/03/17 05:55:15;;;;;;;57.03;38.73;;;;;;;6.58;85.16;102482.13;4983290;28;20286;-73
2022/03/17 05:57:42;;;;;;;60.23;39.57;;;;;;;6.60;85.06;102483.97;4972910;28;20363;-73
2022/03/17 06:00:13;;;;;;;62.53;41.50;;;;;;;6.65;85.28;102485.13;4969529;28;20192;-73
2022/03/17 06:02:39;;;;;;;58.90;41.17;;;;;;;6.66;84.71;102481.81;4970562;28;20653;-73
2022/03/17 06:05:06;;;;;;;58.27;40.73;;;;;;;6.67;85.20;102478.47;4975416;28;20215;-73
2022/03/17 06:07:46;;;;;;;61.17;41.93;;;;;;;6.69;84.70;102468.38;4979846;28;20196;-73
2022/03/17 06:10:17;;;;;;;61.53;41.87;;;;;;;6.70;84.63;102473.56;4970480;28;20196;-73
2022/03/17 06:12:46;;;;;;;57.57;40.30;;;;;;;6.73;84.42;102462.69;4989464;28;20257;-73
2022/03/17 06:15:12;;;;;;;61.00;42.00;;;;;;;6.74;84.36;102464.44;4988369;28;20631;-73
2022/03/17 06:17:47;;;;;;;56.50;39.53;;;;;;;6.78;83.79;102466.41;4988608;28;20295;-74
2022/03/17 06:20:18;;;;;;;63.30;39.80;;;;;;;6.79;83.71;102466.50;4973281;28;20551;-73
2022/03/17 06:22:46;;;;;;;60.53;40.20;;;;;;;6.79;83.45;102469.03;4969096;28;20201;-73
2022/03/17 06:25:14;;;;;;;59.23;39.97;;;;;;;6.83;83.86;102473.53;4970199;28;20219;-73
2022/03/17 06:27:39;;;;;;;59.87;40.90;;;;;;;6.85;84.10;102471.94;4970307;28;20567;-73
2022/03/17 06:30:07;;;;;;;57.53;41.50;;;;;;;6.85;84.05;102477.03;4970590;28;20192;-73
2022/03/17 06:32:38;;;;;;;61.20;41.33;;;;;;;6.90;83.89;102474.75;4988936;28;20238;-73
2022/03/17 06:35:03;;;;;;;63.60;41.93;;;;;;;6.89;83.45;102468.81;4976222;28;20204;-72
2022/03/17 06:37:29;;;;;;;62.53;43.10;;;;;;;6.88;83.59;102463.59;4985823;28;20199;-73
2022/03/17 06:39:54;;;;;;;60.17;41.80;;;;;;;6.92;83.63;102469.00;4974077;28;20284;-73
2022/03/17 06:42:21;;;;;;;56.90;40.80;;;;;;;6.94;84.13;102463.97;4972864;28;20197;-73
2022/03/17 06:44:46;;;;;;;66.23;43.90;;;;;;;6.98;84.17;102465.91;4987141;28;20696;-73
2022/03/17 06:47:12;;;;;;;59.17;41.90;;;;;;;6.98;83.38;102461.72;4974795;28;20303;-72
2022/03/17 06:49:37;;;;;;;61.27;42.00;;;;;;;7.00;83.74;102459.25;4973870;28;20554;-74
2022/03/17 06:52:03;;;;;;;59.63;41.50;;;;;;;7.18;83.39;102458.66;4973955;28;20595;-74
2022/03/17 06:54:28;;;;;;;60.70;41.80;;;;;;;7.12;83.84;102460.84;4968508;28;20874;-74
2022/03/17 06:56:53;;;;;;;59.27;42.77;;;;;;;7.14;83.35;102461.81;4963335;28;20255;-74
2022/03/17 06:59:19;;;;;;;65.70;42.57;;;;;;;7.17;83.39;102468.75;4957323;28;20189;-73
2022/03/17 07:01:44;;;;;;;61.13;42.53;;;;;;;7.19;82.66;102469.75;4955911;28;20271;-73
2022/03/17 07:04:09;;;;;;;61.63;42.50;;;;;;;7.24;82.60;102474.28;4966023;28;20781;-73
2022/03/17 07:06:35;;;;;;;59.60;41.60;;;;;;;7.28;82.78;102470.28;4971237;28;20199;-73
2022/03/17 07:09:00;;;;;;;60.93;42.00;;;;;;;7.28;82.37;102467.75;4972182;28;20215;-73
2022/03/17 07:11:25;;;;;;;61.20;43.10;;;;;;;7.31;83.24;102467.88;4954715;28;20236;-73
2022/03/17 07:13:51;;;;;;;61.47;42.73;;;;;;;7.38;82.95;102459.84;4974501;28;20188;-73
2022/03/17 07:16:18;;;;;;;66.37;43.47;;;;;;;7.40;81.41;102461.69;4972632;28;20243;-74
2022/03/17 07:18:43;;;;;;;57.57;41.50;;;;;;;7.46;81.94;102466.25;4971269;28;20646;-74
2022/03/17 07:21:08;;;;;;;66.43;44.07;;;;;;;7.53;81.31;102459.06;4972058;28;20243;-73
2022/03/17 07:23:34;;;;;;;63.13;43.43;;;;;;;7.53;81.79;102469.25;4970639;28;20562;-74
2022/03/17 07:26:01;;;;;;;60.40;43.40;;;;;;;7.59;81.48;102463.59;4971242;28;20189;-73
2022/03/17 07:28:27;;;;;;;61.80;41.10;;;;;;;7.58;81.24;102470.38;4971226;28;20188;-74
2022/03/17 07:30:52;;;;;;;59.53;41.97;;;;;;;7.61;81.18;102468.00;4954542;28;20197;-73
2022/03/17 07:33:17;;;;;;;56.93;40.30;;;;;;;7.61;80.72;102475.63;4953071;28;20219;-73
2022/03/17 07:35:43;;;;;;;58.00;42.17;;;;;;;7.63;81.38;102479.16;4953164;28;20606;-73
2022/03/17 07:38:08;;;;;;;60.87;42.87;;;;;;;7.67;80.25;102485.31;4972014;28;20645;-73
2022/03/17 07:40:34;;;;;;;59.47;42.37;;;;;;;7.69;80.10;102483.75;4971204;28;20199;-72
2022/03/17 07:43:02;;;;;;;61.13;42.93;;;;;;;7.71;80.03;102477.94;4970617;28;20235;-73
2022/03/17 07:45:30;;;;;;;59.27;42.10;;;;;;;7.71;80.10;102471.94;4970964;28;20228;-73
2022/03/17 07:48:15;;;;;;;57.43;40.63;;;;;;;7.69;80.63;102487.16;4957183;28;20203;-73
2022/03/17 07:50:53;;;;;;;55.77;40.20;;;;;;;7.72;80.96;102491.53;4951423;28;20189;-72
2022/03/17 07:53:19;;;;;;;59.07;42.23;;;;;;;7.75;80.53;102500.28;4959300;28;20572;-73
2022/03/17 07:55:45;;;;;;;60.87;42.23;;;;;;;7.78;80.36;102495.31;4965012;28;20231;-73
2022/03/17 07:58:11;;;;;;;57.37;41.17;;;;;;;7.78;80.34;102502.13;4966059;28;20810;-73
2022/03/17 08:00:37;;;;;;;61.80;44.37;;;;;;;7.84;79.59;102495.66;4952844;28;20197;-73
2022/03/17 08:03:06;;;;;;;59.30;43.03;;;;;;;7.85;79.32;102488.91;4952658;29;20651;-73
2022/03/17 08:05:32;;;;;;;60.87;44.03;;;;;;;7.87;80.43;102487.34;4954428;28;20713;-73
2022/03/17 08:08:00;;;;;;;57.83;41.37;;;;;;;7.92;79.87;102491.03;4963740;28;20210;-73
2022/03/17 08:10:28;;;;;;;61.60;44.23;;;;;;;7.90;79.91;102495.16;4952597;28;20284;-73
2022/03/17 08:12:54;;;;;;;58.10;42.87;;;;;;;7.93;79.56;102498.72;4951274;29;20815;-72
2022/03/17 08:15:20;;;;;;;60.07;42.40;;;;;;;7.99;79.25;102504.22;4951060;29;20208;-73
2022/03/17 08:17:46;;;;;;;60.37;43.63;;;;;;;8.04;78.73;102494.25;4958238;28;20200;-73
2022/03/17 08:20:12;;;;;;;61.17;43.13;;;;;;;8.08;78.69;102502.16;4955181;28;20204;-74
2022/03/17 08:22:37;;;;;;;61.77;42.93;;;;;;;8.08;78.87;102499.63;4952300;28;20193;-73
2022/03/17 08:25:03;;;;;;;58.93;42.73;;;;;;;8.11;78.05;102499.75;4952370;28;20213;-73
2022/03/17 08:27:29;;;;;;;61.63;43.30;;;;;;;8.13;78.42;102495.66;4952615;28;20205;-73
2022/03/17 08:29:55;;;;;;;56.50;41.33;;;;;;;8.19;78.29;102500.19;4951967;28;20221;-72
2022/03/17 08:32:20;;;;;;;59.77;42.07;;;;;;;8.22;78.85;102503.84;4963396;28;20229;-73
2022/03/17 08:34:46;;;;;;;60.63;44.53;;;;;;;8.27;78.48;102510.06;4962423;28;20201;-73
2022/03/17 08:37:11;;;;;;;61.10;42.40;;;;;;;8.28;77.24;102506.72;4952136;29;20189;-74
2022/03/17 08:39:37;;;;;;;58.03;42.97;;;;;;;8.31;77.65;102501.81;4952797;28;20263;-73
2022/03/17 08:42:02;;;;;;;57.10;41.73;;;;;;;8.35;78.05;102501.19;4952491;29;20199;-73
2022/03/17 08:44:28;;;;;;;54.73;41.57;;;;;;;8.37;77.71;102501.22;4956307;28;20291;-73
2022/03/17 08:49:37;;;;;;;57.07;42.27;;;;;;;8.44;77.09;102508.44;4971932;28;20788;-73
2022/03/17 08:52:03;;;;;;;58.23;40.83;;;;;;;8.48;77.19;102511.22;4954262;28;20268;-73
2022/03/17 08:54:33;;;;;;;60.17;43.10;;;;;;;8.44;76.88;102513.56;4958935;28;20210;-73
2022/03/17 08:57:01;;;;;;;58.70;42.90;;;;;;;8.45;76.17;102511.09;4959428;28;20225;-73
2022/03/17 08:59:36;;;;;;;56.97;42.20;;;;;;;8.47;77.94;102518.84;4950639;29;20573;-73
2022/03/17 09:02:07;;;;;;;56.63;41.80;;;;;;;8.44;77.50;102519.50;4971259;28;20817;-73
2022/03/17 09:04:33;;;;;;;57.77;41.43;;;;;;;8.47;77.36;102529.03;4966683;28;20208;-73
2022/03/17 09:07:00;;;;;;;58.00;43.20;;;;;;;8.43;77.00;102527.97;4959665;28;20188;-74
2022/03/17 09:09:30;;;;;;;56.70;41.90;;;;;;;8.41;77.88;102532.13;4953880;28;20542;-73
2022/03/17 09:11:56;;;;;;;57.37;42.60;;;;;;;8.44;77.47;102533.97;4950555;28;20687;-73
2022/03/17 09:14:22;;;;;;;54.60;40.50;;;;;;;8.42;77.38;102539.00;4951992;28;20207;-74
2022/03/17 09:16:47;;;;;;;60.00;42.17;;;;;;;8.42;77.61;102535.53;4960032;28;20193;-74
2022/03/17 09:19:13;;;;;;;58.67;43.03;;;;;;;8.40;77.33;102537.16;4964316;28;20222;-74
2022/03/17 09:21:39;;;;;;;56.13;41.37;;;;;;;8.38;77.53;102539.59;4951780;28;20184;-73
2022/03/17 09:24:04;;;;;;;55.47;42.30;;;;;;;8.36;77.60;102543.75;4954150;28;20682;-73
2022/03/17 09:26:31;;;;;;;54.27;41.53;;;;;;;8.40;77.15;102545.69;4964217;28;20213;-74
2022/03/17 09:28:56;;;;;;;59.37;43.90;;;;;;;8.37;77.25;102545.50;4967626;28;20199;-73
2022/03/17 09:31:22;;;;;;;56.13;41.37;;;;;;;8.40;77.74;102553.34;4950411;29;20185;-73
2022/03/17 09:33:48;;;;;;;58.57;43.17;;;;;;;8.39;76.92;102554.13;4953105;28;20243;-74
2022/03/17 09:36:14;;;;;;;57.97;42.80;;;;;;;8.37;77.40;102563.38;4969535;28;20251;-73
2022/03/17 09:38:39;;;;;;;56.70;42.10;;;;;;;8.37;78.22;102562.50;4970683;28;20192;-74
2022/03/17 09:41:23;;;;;;;58.97;42.20;;;;;;;8.39;78.20;102560.91;4966278;28;20604;-74
2022/03/17 09:43:49;;;;;;;61.63;43.80;;;;;;;8.37;78.93;102565.03;4951326;29;20688;-73
2022/03/17 09:46:17;;;;;;;60.03;43.43;;;;;;;8.37;78.66;102565.03;4951553;29;20584;-74
2022/03/17 09:48:44;;;;;;;62.87;45.83;;;;;;;8.32;79.11;102566.47;4952670;28;20188;-74
2022/03/17 09:51:11;;;;;;;59.33;44.40;;;;;;;8.32;79.92;102563.91;4969504;28;20196;-74
2022/03/17 09:53:36;;;;;;;60.60;44.93;;;;;;;8.34;79.49;102570.00;4969763;28;20196;-73
2022/03/17 09:56:01;;;;;;;61.70;45.43;;;;;;;8.32;79.33;102572.44;4970829;28;20198;-74
2022/03/17 09:58:27;;;;;;;67.63;47.87;;;;;;;8.34;79.86;102575.09;4969492;28;20196;-74
2022/03/17 10:00:53;;;;;;;72.60;51.93;;;;;;;8.34;80.04;102580.19;4953819;28;20674;-74
2022/03/17 10:03:19;;;;;;;72.17;50.20;;;;;;;8.31;80.25;102583.47;4985404;28;20569;-74
2022/03/17 10:05:46;;;;;;;68.87;48.93;;;;;;;8.32;81.42;102584.31;4961790;28;20572;-74
2022/03/17 10:08:13;;;;;;;69.47;52.27;;;;;;;8.30;80.69;102591.88;4954735;28;20197;-74
2022/03/17 10:10:40;;;;;;;69.73;49.10;;;;;;;8.31;81.45;102600.44;4955198;29;20196;-74
2022/03/17 10:13:18;;;;;;;61.40;45.60;;;;;;;8.30;82.86;102604.66;4955034;29;20973;-73
2022/03/17 10:15:45;;;;;;;66.07;47.43;;;;;;;8.27;82.61;102611.25;4955090;29;20201;-73
2022/03/17 10:18:19;;;;;;;71.77;53.33;;;;;;;8.28;83.61;102611.34;4955091;29;20678;-74
2022/03/17 10:20:45;;;;;;;59.70;45.33;;;;;;;8.26;84.36;102615.50;4953366;29;20659;-74
2022/03/17 10:23:11;;;;;;;62.80;47.93;;;;;;;8.30;84.49;102617.41;4964951;28;20196;-74
2022/03/17 10:25:37;;;;;;;66.40;49.83;;;;;;;8.29;85.83;102620.75;4965325;28;20224;-74
2022/03/17 10:28:03;;;;;;;60.00;46.17;;;;;;;8.33;85.47;102624.34;4954866;29;20207;-74
2022/03/17 10:30:35;;;;;;;63.27;46.57;;;;;;;8.34;85.27;102634.66;4954847;29;20197;-74
2022/03/17 10:33:11;;;;;;;66.47;50.03;;;;;;;8.34;85.72;102632.09;4954716;29;20197;-74
2022/03/17 10:35:38;;;;;;;65.70;47.27;;;;;;;8.31;86.21;102643.81;4970846;28;20215;-74
2022/03/17 10:38:17;;;;;;;65.57;47.70;;;;;;;8.30;87.24;102649.72;4974161;28;20193;-73
2022/03/17 10:40:44;;;;;;;69.63;48.53;;;;;;;8.30;87.47;102648.03;4973705;28;20180;-74
2022/03/17 10:43:24;;;;;;;65.57;48.40;;;;;;;8.30;87.35;102657.38;4966680;28;20197;-74
2022/03/17 10:46:11;;;;;;;68.00;47.97;;;;;;;8.28;88.20;102662.38;4954503;29;20221;-74
2022/03/17 10:48:53;;;;;;;65.63;49.90;;;;;;;8.23;88.41;102663.78;4961855;28;20555;-74
2022/03/17 10:51:33;;;;;;;71.80;51.00;;;;;;;8.29;89.06;102664.13;4974016;28;20230;-74
2022/03/17 10:54:04;;;;;;;66.97;49.87;;;;;;;8.25;89.52;102686.84;4974337;28;20642;-74
2022/03/17 10:56:30;;;;;;;70.00;51.00;;;;;;;8.21;90.32;102685.78;4972617;28;20243;-74
2022/03/17 10:58:56;;;;;;;70.20;50.33;;;;;;;8.17;89.60;102690.59;4969428;28;20721;-73
2022/03/17 11:01:38;;;;;;;67.93;50.70;;;;;;;8.11;90.79;102693.66;4957242;28;20581;-74
2022/03/17 11:04:04;;;;;;;70.43;51.60;;;;;;;8.12;91.78;102695.44;4973102;28;20223;-74
2022/03/17 11:06:30;;;;;;;69.33;50.00;;;;;;;8.13;91.49;102698.84;4973606;28;20697;-73
2022/03/17 11:08:57;;;;;;;70.03;50.87;;;;;;;8.09;91.68;102704.56;4957290;28;20201;-74
2022/03/17 11:11:23;;;;;;;73.87;51.53;;;;;;;8.06;93.08;102715.47;4952877;29;20189;-74
2022/03/17 11:13:50;;;;;;;70.00;51.37;;;;;;;8.06;92.97;102718.00;4963004;28;20180;-73
2022/03/17 11:16:17;;;;;;;71.00;49.13;;;;;;;8.12;93.42;102717.50;4967297;28;20204;-73
2022/03/17 11:18:44;;;;;;;70.97;51.13;;;;;;;8.13;93.35;102724.38;4954058;29;20224;-73
2022/03/17 11:21:21;;;;;;;72.07;51.63;;;;;;;8.12;93.62;102732.81;4962362;28;20232;-73
2022/03/17 11:23:56;;;;;;;73.10;51.50;;;;;;;8.10;94.35;102735.28;4956427;28;20314;-73
2022/03/17 11:26:29;;;;;;;73.87;52.20;;;;;;;8.11;93.67;102738.72;4981412;28;20752;-73
2022/03/17 11:29:03;;;;;;;72.07;52.30;;;;;;;8.09;94.26;102740.28;4983030;28;20569;-73